createdAt,value
2019-01-20T00:00:52.870Z,98852.72
2019-01-20T00:02:53.819Z,98853.05
2019-01-20T00:04:54.497Z,98850.29
2019-01-20T00:06:55.162Z,98846.53
2019-01-20T00:08:55.915Z,98850.81
2019-01-20T00:10:56.706Z,98843.70
2019-01-20T00:12:57.619Z,98846.84
2019-01-20T00:14:58.260Z,98845.05
2019-01-20T00:16:59.125Z,98836.13
2019-01-20T00:18:59.839Z,98842.56
2019-01-20T00:21:00.784Z,98835.83
2019-01-20T00:23:01.490Z,98840.77
2019-01-20T00:25:04.617Z,98839.80
2019-01-20T00:27:05.242Z,98840.14
2019-01-20T00:29:07.005Z,98839.17
2019-01-20T00:31:07.957Z,98841.50
2019-01-20T00:33:08.869Z,98835.96
2019-01-20T00:35:09.527Z,98837.02
2019-01-20T00:37:10.445Z,98832.89
2019-01-20T00:39:11.348Z,98838.82
2019-01-20T00:41:12.060Z,98842.86
2019-01-20T00:43:13.053Z,98830.34
2019-01-20T00:45:15.595Z,98843.91
2019-01-20T00:47:16.537Z,98841.58
2019-01-20T00:49:17.476Z,98840.81
2019-01-20T00:51:18.212Z,98838.64
2019-01-20T00:53:18.902Z,98850.71
2019-01-20T00:55:19.565Z,98844.04
2019-01-20T00:57:20.261Z,98846.38
2019-01-20T00:59:21.116Z,98843.76
2019-01-20T01:01:22.098Z,98845.27
2019-01-20T01:03:22.707Z,98845.33
2019-01-20T01:05:23.875Z,98842.55
2019-01-20T01:07:24.793Z,98840.98
2019-01-20T01:09:25.398Z,98843.44
2019-01-20T01:11:31.571Z,98847.63
2019-01-20T01:13:28.792Z,98852.37
2019-01-20T01:15:29.732Z,98847.63
2019-01-20T01:17:30.419Z,98842.02
2019-01-20T01:19:31.075Z,98849.75
2019-01-20T01:21:32.034Z,98841.45
2019-01-20T01:23:32.710Z,98842.95
2019-01-20T01:25:33.399Z,98851.08
2019-01-20T01:27:34.300Z,98846.41
2019-01-20T01:29:35.251Z,98842.91
2019-01-20T01:31:35.967Z,98847.34
2019-01-20T01:33:36.899Z,98849.68
2019-01-20T01:35:37.851Z,98849.98
2019-01-20T01:37:38.608Z,98851.48
2019-01-20T01:39:39.509Z,98844.30
2019-01-20T01:41:40.331Z,98843.06
2019-01-20T01:43:41.327Z,98846.59
2019-01-20T01:45:42.220Z,98851.55
2019-01-20T01:47:43.072Z,98852.76
2019-01-20T01:49:44.003Z,98846.89
2019-01-20T01:51:44.679Z,98852.27
2019-01-20T01:53:45.308Z,98846.59
2019-01-20T01:55:46.204Z,98853.42
2019-01-20T01:57:46.873Z,98857.37
2019-01-20T01:59:47.739Z,98859.49
2019-01-20T02:01:48.463Z,98856.91
2019-01-20T02:03:49.158Z,98856.59
2019-01-20T02:05:51.021Z,98863.05
2019-01-20T02:07:51.920Z,98861.27
2019-01-20T02:09:52.523Z,98861.73
2019-01-20T02:11:53.132Z,98861.45
2019-01-20T02:13:54.011Z,98860.48
2019-01-20T02:15:54.678Z,98867.23
2019-01-20T02:17:55.306Z,98861.11
2019-01-20T02:19:55.960Z,98866.20
2019-01-20T02:21:56.651Z,98864.20
2019-01-20T02:23:57.487Z,98866.23
2019-01-20T02:25:58.180Z,98865.20
2019-01-20T02:27:59.243Z,98860.03
2019-01-20T02:30:00.216Z,98864.29
2019-01-20T02:32:01.185Z,98863.03
2019-01-20T02:34:01.861Z,98860.10
2019-01-20T02:36:02.777Z,98863.14
2019-01-20T02:38:03.702Z,98862.14
2019-01-20T02:40:08.787Z,98859.59
2019-01-20T02:42:09.406Z,98858.98
2019-01-20T02:44:10.158Z,98858.14
2019-01-20T02:46:10.751Z,98857.80
2019-01-20T02:48:11.620Z,98861.97
2019-01-20T02:50:14.580Z,98856.05
2019-01-20T02:52:15.292Z,98859.98
2019-01-20T02:54:16.159Z,98862.91
2019-01-20T02:56:16.829Z,98864.09
2019-01-20T02:58:17.483Z,98861.93
2019-01-20T03:00:20.261Z,98860.35
2019-01-20T03:02:21.162Z,98858.94
2019-01-20T03:04:22.078Z,98858.11
2019-01-20T03:06:22.705Z,98860.42
2019-01-20T03:08:23.636Z,98862.17
2019-01-20T03:10:24.567Z,98852.09
2019-01-20T03:12:25.276Z,98851.92
2019-01-20T03:14:25.931Z,98841.54
2019-01-20T03:16:26.860Z,98841.54
2019-01-20T03:18:27.562Z,98842.31
2019-01-20T03:20:28.463Z,98850.98
2019-01-20T03:22:29.115Z,98845.70
2019-01-20T03:24:29.994Z,98845.70
2019-01-20T03:26:30.942Z,98846.87
2019-01-20T03:28:31.865Z,98845.66
2019-01-20T03:30:32.486Z,98848.90
2019-01-20T03:32:33.212Z,98846.28
2019-01-20T03:34:34.080Z,98843.36
2019-01-20T03:36:34.982Z,98839.23
2019-01-20T03:38:35.708Z,98835.97
2019-01-20T03:40:36.627Z,98841.11
2019-01-20T03:42:37.727Z,98840.48
2019-01-20T03:44:38.407Z,98841.53
2019-01-20T03:46:39.107Z,98837.09
2019-01-20T03:48:39.946Z,98844.07
2019-01-20T03:50:40.606Z,98844.12
2019-01-20T03:52:41.342Z,98839.92
2019-01-20T03:54:42.278Z,98849.94
2019-01-20T03:56:43.130Z,98848.38
2019-01-20T03:58:43.798Z,98850.03
2019-01-20T04:00:44.752Z,98850.86
2019-01-20T04:02:45.669Z,98847.95
2019-01-20T04:04:46.521Z,98848.69
2019-01-20T04:06:47.478Z,98847.55
2019-01-20T04:08:48.240Z,98847.10
2019-01-20T04:10:48.858Z,98844.38
2019-01-20T04:12:49.554Z,98844.77
2019-01-20T04:14:50.324Z,98849.78
2019-01-20T04:16:50.987Z,98849.72
2019-01-20T04:18:51.831Z,98843.77
2019-01-20T04:20:52.475Z,98846.10
2019-01-20T04:22:53.406Z,98846.59
2019-01-20T04:24:54.645Z,98847.77
2019-01-20T04:26:55.463Z,98855.56
2019-01-20T04:28:56.334Z,98847.27
2019-01-20T04:30:56.962Z,98841.59
2019-01-20T04:32:57.680Z,98852.13
2019-01-20T04:34:58.380Z,98845.39
2019-01-20T04:36:59.236Z,98849.78
2019-01-20T04:39:00.207Z,98843.89
2019-01-20T04:41:00.816Z,98848.30
2019-01-20T04:43:01.705Z,98841.66
2019-01-20T04:45:07.273Z,98842.91
2019-01-20T04:47:08.218Z,98848.20
2019-01-20T04:49:09.045Z,98845.64
2019-01-20T04:51:09.798Z,98846.55
2019-01-20T04:53:13.307Z,98844.67
2019-01-20T04:55:14.501Z,98846.08
2019-01-20T04:57:16.190Z,98841.38
2019-01-20T04:59:17.127Z,98840.80
2019-01-20T05:01:17.800Z,98845.20
2019-01-20T05:03:18.691Z,98843.11
2019-01-20T05:05:19.372Z,98847.20
2019-01-20T05:07:20.239Z,98848.54
2019-01-20T05:09:21.191Z,98849.73
2019-01-20T05:11:21.800Z,98852.42
2019-01-20T05:13:22.848Z,98845.91
2019-01-20T05:15:23.556Z,98854.02
2019-01-20T05:17:24.493Z,98848.31
2019-01-20T05:19:25.345Z,98849.72
2019-01-20T05:21:26.081Z,98849.34
2019-01-20T05:23:27.122Z,98853.81
2019-01-20T05:25:28.052Z,98851.63
2019-01-20T05:27:29.000Z,98851.63
2019-01-20T05:29:29.962Z,98846.88
2019-01-20T05:31:30.609Z,98850.47
2019-01-20T05:33:31.495Z,98848.94
2019-01-20T05:35:32.406Z,98851.03
2019-01-20T05:37:33.122Z,98853.53
2019-01-20T05:39:34.088Z,98856.45
2019-01-20T05:41:34.875Z,98858.62
2019-01-20T05:43:35.761Z,98854.17
2019-01-20T05:45:36.467Z,98854.16
2019-01-20T05:47:37.081Z,98851.80
2019-01-20T05:49:37.911Z,98852.62
2019-01-20T05:51:38.788Z,98852.77
2019-01-20T05:53:39.685Z,98858.43
2019-01-20T05:55:40.282Z,98852.45
2019-01-20T05:57:40.900Z,98859.13
2019-01-20T05:59:41.536Z,98855.25
2019-01-20T06:01:42.417Z,98853.03
2019-01-20T06:03:43.363Z,98857.98
2019-01-20T06:05:44.050Z,98858.89
2019-01-20T06:07:44.907Z,98862.86
2019-01-20T06:09:45.649Z,98861.23
2019-01-20T06:11:46.621Z,98869.25
2019-01-20T06:13:47.476Z,98870.30
2019-01-20T06:15:48.140Z,98869.54
2019-01-20T06:17:49.090Z,98867.00
2019-01-20T06:19:50.033Z,98872.31
2019-01-20T06:21:50.735Z,98873.86
2019-01-20T06:23:51.796Z,98874.50
2019-01-20T06:25:52.627Z,98876.44
2019-01-20T06:27:53.347Z,98879.61
2019-01-20T06:29:54.367Z,98872.81
2019-01-20T06:31:55.993Z,98876.24
2019-01-20T06:33:56.656Z,98883.14
2019-01-20T06:35:57.356Z,98879.73
2019-01-20T06:37:57.996Z,98886.44
2019-01-20T06:39:58.875Z,98879.23
2019-01-20T06:41:59.478Z,98884.56
2019-01-20T06:44:00.169Z,98880.87
2019-01-20T06:46:01.069Z,98882.41
2019-01-20T06:48:01.935Z,98892.09
2019-01-20T06:50:06.339Z,98889.61
2019-01-20T06:52:07.217Z,98895.02
2019-01-20T06:54:08.163Z,98894.64
2019-01-20T06:56:08.858Z,98896.90
2019-01-20T06:58:09.738Z,98900.45
2019-01-20T07:00:16.535Z,98905.58
2019-01-20T07:02:17.185Z,98905.13
2019-01-20T07:04:18.083Z,98916.44
2019-01-20T07:06:18.941Z,98911.98
2019-01-20T07:08:19.589Z,98915.02
2019-01-20T07:10:20.478Z,98918.48
2019-01-20T07:12:21.430Z,98926.11
2019-01-20T07:14:22.082Z,98929.98
2019-01-20T07:16:22.945Z,98926.31
2019-01-20T07:18:23.640Z,98923.83
2019-01-20T07:20:24.504Z,98926.58
2019-01-20T07:22:25.475Z,98937.72
2019-01-20T07:24:26.141Z,98940.28
2019-01-20T07:26:26.734Z,98938.80
2019-01-20T07:28:27.604Z,98941.79
2019-01-20T07:30:28.228Z,98946.98
2019-01-20T07:32:29.100Z,98954.42
2019-01-20T07:34:29.723Z,98949.14
2019-01-20T07:36:30.420Z,98950.22
2019-01-20T07:38:31.044Z,98947.20
2019-01-20T07:40:32.140Z,98948.52
2019-01-20T07:42:33.054Z,98949.34
2019-01-20T07:44:33.990Z,98960.47
2019-01-20T07:46:34.960Z,98963.66
2019-01-20T07:48:35.863Z,98959.22
2019-01-20T07:50:36.798Z,98965.37
2019-01-20T07:52:37.676Z,98963.30
2019-01-20T07:54:38.558Z,98965.05
2019-01-20T07:56:39.511Z,98966.82
2019-01-20T07:58:40.454Z,98969.48
2019-01-20T08:00:41.134Z,98971.27
2019-01-20T08:02:41.760Z,98967.21
2019-01-20T08:04:42.718Z,98971.59
2019-01-20T08:06:43.562Z,98978.61
2019-01-20T08:08:44.211Z,98978.20
2019-01-20T08:10:45.144Z,98979.11
2019-01-20T08:12:46.293Z,98978.45
2019-01-20T08:14:46.960Z,98980.59
2019-01-20T08:16:47.819Z,98986.25
2019-01-20T08:18:48.777Z,98986.29
2019-01-20T08:20:49.457Z,98987.50
2019-01-20T08:22:50.666Z,98989.91
2019-01-20T08:24:51.576Z,98990.42
2019-01-20T08:26:52.501Z,98995.25
2019-01-20T08:28:53.221Z,98995.37
2019-01-20T08:30:54.065Z,98996.92
2019-01-20T08:32:54.770Z,98996.08
2019-01-20T08:34:55.674Z,98999.20
2019-01-20T08:36:56.513Z,98999.20
2019-01-20T08:38:57.408Z,99002.39
2019-01-20T08:40:58.348Z,99009.66
2019-01-20T08:42:58.973Z,99013.25
2019-01-20T08:44:59.687Z,99007.72
2019-01-20T08:47:02.256Z,99015.66
2019-01-20T08:49:03.300Z,99020.44
2019-01-20T08:51:04.249Z,99021.53
2019-01-20T08:53:05.100Z,99022.29
2019-01-20T08:55:07.105Z,99019.23
2019-01-20T08:57:07.997Z,99024.45
2019-01-20T08:59:08.627Z,99029.38
2019-01-20T09:01:09.385Z,99031.02
2019-01-20T09:03:10.057Z,99027.79
2019-01-20T09:05:11.621Z,99023.00
2019-01-20T09:07:12.541Z,99029.59
2019-01-20T09:09:13.247Z,99029.81
2019-01-20T09:11:14.128Z,99024.87
2019-01-20T09:13:15.068Z,99034.22
2019-01-20T09:15:15.901Z,99030.47
2019-01-20T09:17:16.896Z,99038.38
2019-01-20T09:19:17.733Z,99038.30
2019-01-20T09:21:18.668Z,99040.16
2019-01-20T09:23:19.633Z,99039.96
2019-01-20T09:25:20.577Z,99044.06
2019-01-20T09:27:21.495Z,99047.69
2019-01-20T09:29:22.217Z,99047.98
2019-01-20T09:31:23.146Z,99049.69
2019-01-20T09:33:24.694Z,99058.46
2019-01-20T09:35:25.519Z,99050.89
2019-01-20T09:37:26.482Z,99045.99
2019-01-20T09:39:27.186Z,99060.70
2019-01-20T09:41:27.918Z,99059.17
2019-01-20T09:43:28.867Z,99064.17
2019-01-20T09:45:30.358Z,99069.55
2019-01-20T09:47:32.060Z,99067.80
2019-01-20T09:49:32.766Z,99068.91
2019-01-20T09:51:33.613Z,99070.01
2019-01-20T09:53:34.336Z,99066.48
2019-01-20T09:55:34.944Z,99077.97
2019-01-20T09:57:35.852Z,99075.42
2019-01-20T09:59:36.557Z,99075.42
2019-01-20T10:01:37.484Z,99076.70
2019-01-20T10:03:38.420Z,99074.22
2019-01-20T10:05:39.139Z,99086.13
2019-01-20T10:07:41.120Z,99081.25
2019-01-20T10:09:42.005Z,99080.41
2019-01-20T10:11:42.664Z,99084.23
2019-01-20T10:13:45.925Z,99078.95
2019-01-20T10:15:52.218Z,99080.91
2019-01-20T10:17:52.630Z,99078.28
2019-01-20T10:19:53.473Z,99078.81
2019-01-20T10:21:54.188Z,99082.25
2019-01-20T10:23:55.096Z,99076.08
2019-01-20T10:25:55.997Z,99075.25
2019-01-20T10:27:56.986Z,99067.99
2019-01-20T10:29:58.016Z,99076.73
2019-01-20T10:31:58.759Z,99081.50
2019-01-20T10:34:00.518Z,99078.06
2019-01-20T10:36:02.095Z,99069.65
2019-01-20T10:38:03.434Z,99071.06
2019-01-20T10:40:06.037Z,99070.92
2019-01-20T10:42:06.929Z,99071.39
2019-01-20T10:44:07.886Z,99067.95
2019-01-20T10:46:09.958Z,99076.47
2019-01-20T10:48:10.778Z,99075.30
2019-01-20T10:50:14.124Z,99080.19
2019-01-20T10:52:16.123Z,99080.28
2019-01-20T10:54:18.290Z,99079.92
2019-01-20T10:56:19.218Z,99079.55
2019-01-20T10:58:20.171Z,99079.03
2019-01-20T11:00:31.073Z,99081.37
2019-01-20T11:02:31.966Z,99075.23
2019-01-20T11:04:35.926Z,99072.80
2019-01-20T11:06:36.597Z,99067.12
2019-01-20T11:08:37.529Z,99067.09
2019-01-20T11:10:39.947Z,99066.10
2019-01-20T11:12:42.397Z,99062.47
2019-01-20T11:14:45.060Z,99064.20
2019-01-20T11:16:45.753Z,99070.59
2019-01-20T11:18:46.618Z,99071.30
2019-01-20T11:20:47.262Z,99074.54
2019-01-20T11:22:48.030Z,99066.80
2019-01-20T11:24:48.700Z,99068.32
2019-01-20T11:26:51.048Z,99060.72
2019-01-20T11:28:51.831Z,99067.31
2019-01-20T11:30:53.901Z,99063.01
2019-01-20T11:32:55.788Z,99059.38
2019-01-20T11:34:58.102Z,99060.62
2019-01-20T11:37:00.169Z,99062.91
2019-01-20T11:39:00.856Z,99060.80
2019-01-20T11:41:03.494Z,99059.94
2019-01-20T11:43:05.637Z,99062.17
2019-01-20T11:45:11.651Z,99063.89
2019-01-20T11:47:13.046Z,99058.88
2019-01-20T11:49:17.797Z,99059.80
2019-01-20T11:51:18.667Z,99060.91
2019-01-20T11:53:19.283Z,99060.62
2019-01-20T11:55:21.832Z,99067.03
2019-01-20T11:57:22.711Z,99057.51
2019-01-20T11:59:23.543Z,99060.53
2019-01-20T12:01:25.804Z,99063.01
2019-01-20T12:03:26.721Z,99057.70
2019-01-20T12:05:28.529Z,99056.66
2019-01-20T12:07:29.234Z,99063.89
2019-01-20T12:09:29.962Z,99067.27
2019-01-20T12:11:33.588Z,99065.08
2019-01-20T12:13:34.323Z,99072.48
2019-01-20T12:15:35.684Z,99068.69
2019-01-20T12:17:36.597Z,99064.16
2019-01-20T12:19:37.293Z,99068.15
2019-01-20T12:21:42.577Z,99070.11
2019-01-20T12:23:43.280Z,99072.34
2019-01-20T12:25:46.625Z,99066.48
2019-01-20T12:27:47.553Z,99067.45
2019-01-20T12:29:51.983Z,99056.95
2019-01-20T12:31:50.759Z,99056.95
2019-01-20T12:33:51.671Z,99063.48
2019-01-20T12:35:53.303Z,99057.48
2019-01-20T12:37:54.026Z,99062.56
2019-01-20T12:39:54.732Z,99068.73
2019-01-20T12:41:58.705Z,99066.03
2019-01-20T12:44:02.636Z,99068.56
2019-01-20T12:46:03.648Z,99064.02
2019-01-20T12:48:04.590Z,99054.67
2019-01-20T12:50:14.373Z,99053.76
2019-01-20T12:52:15.000Z,99058.69
2019-01-20T12:54:15.610Z,99057.77
2019-01-20T12:56:16.249Z,99050.80
2019-01-20T12:58:19.687Z,99052.52
2019-01-20T13:00:20.663Z,99054.41
2019-01-20T13:02:21.373Z,99051.25
2019-01-20T13:04:21.978Z,99054.91
2019-01-20T13:06:22.665Z,99056.63
2019-01-20T13:08:23.361Z,99055.16
2019-01-20T13:10:24.255Z,99046.05
2019-01-20T13:12:25.188Z,99048.36
2019-01-20T13:14:25.937Z,99044.43
2019-01-20T13:16:26.889Z,99036.38
2019-01-20T13:18:28.424Z,99037.67
2019-01-20T13:20:29.367Z,99041.09
2019-01-20T13:22:29.969Z,99039.31
2019-01-20T13:24:30.725Z,99035.57
2019-01-20T13:26:31.434Z,99038.44
2019-01-20T13:28:32.130Z,99037.23
2019-01-20T13:30:36.196Z,99037.20
2019-01-20T13:32:36.893Z,99040.06
2019-01-20T13:34:37.960Z,99045.57
2019-01-20T13:36:39.207Z,99037.16
2019-01-20T13:38:40.263Z,99046.71
2019-01-20T13:40:47.288Z,99046.09
2019-01-20T13:42:47.909Z,99042.48
2019-01-20T13:44:48.903Z,99046.23
2019-01-20T13:46:49.793Z,99049.30
2019-01-20T13:48:50.494Z,99046.84
2019-01-20T13:50:51.272Z,99052.41
2019-01-20T13:52:51.869Z,99056.63
2019-01-20T13:54:52.489Z,99059.30
2019-01-20T13:56:53.180Z,99054.31
2019-01-20T13:58:56.848Z,99054.47
2019-01-20T14:00:57.874Z,99058.02
2019-01-20T14:03:00.865Z,99056.02
2019-01-20T14:05:02.100Z,99055.39
2019-01-20T14:07:03.066Z,99070.25
2019-01-20T14:09:05.231Z,99060.84
2019-01-20T14:11:08.664Z,99060.84
2019-01-20T14:13:10.129Z,99068.66
2019-01-20T14:15:12.654Z,99070.20
2019-01-20T14:17:16.258Z,99074.38
2019-01-20T14:19:21.668Z,99065.42
2019-01-20T14:21:19.551Z,99071.59
2019-01-20T14:23:21.788Z,99076.08
2019-01-20T14:25:27.131Z,99080.09
2019-01-20T14:27:28.244Z,99082.41
2019-01-20T14:29:30.458Z,99077.04
2019-01-20T14:31:32.231Z,99077.41
2019-01-20T14:33:32.952Z,99085.33
2019-01-20T14:35:33.734Z,99081.77
2019-01-20T14:37:34.408Z,99078.23
2019-01-20T14:39:35.146Z,99082.87
2019-01-20T14:41:35.780Z,99082.34
2019-01-20T14:43:36.455Z,99078.79
2019-01-20T14:45:37.194Z,99088.02
2019-01-20T14:47:40.116Z,99090.62
2019-01-20T14:49:42.037Z,99089.40
2019-01-20T14:51:42.775Z,99086.41
2019-01-20T14:53:43.486Z,99094.23
2019-01-20T14:55:44.435Z,99097.62
2019-01-20T14:57:47.104Z,99092.83
2019-01-20T14:59:47.983Z,99096.28
2019-01-20T15:01:48.660Z,99101.78
2019-01-20T15:03:50.938Z,99098.17
2019-01-20T15:05:51.557Z,99098.06
2019-01-20T15:07:52.433Z,99095.11
2019-01-20T15:09:53.382Z,99105.62
2019-01-20T15:11:54.367Z,99100.53
2019-01-20T15:13:55.063Z,99100.91
2019-01-20T15:15:55.702Z,99102.91
2019-01-20T15:17:56.357Z,99110.09
2019-01-20T15:19:57.303Z,99112.16
2019-01-20T15:21:58.279Z,99105.84
2019-01-20T15:23:59.538Z,99105.74
2019-01-20T15:26:00.609Z,99111.75
2019-01-20T15:28:01.651Z,99113.70
2019-01-20T15:30:06.881Z,99113.77
2019-01-20T15:32:08.132Z,99117.74
2019-01-20T15:34:09.142Z,99119.45
2019-01-20T15:36:10.700Z,99123.22
2019-01-20T15:38:11.838Z,99122.58
2019-01-20T15:40:16.523Z,99129.42
2019-01-20T15:42:17.342Z,99130.63
2019-01-20T15:44:18.197Z,99128.98
2019-01-20T15:46:24.297Z,99134.16
2019-01-20T15:48:27.751Z,99135.62
2019-01-20T15:50:31.948Z,99131.87
2019-01-20T15:52:32.802Z,99137.56
2019-01-20T15:54:33.548Z,99141.96
2019-01-20T15:56:34.250Z,99138.59
2019-01-20T15:58:35.046Z,99143.45
2019-01-20T16:00:35.957Z,99140.69
2019-01-20T16:02:36.591Z,99149.03
2019-01-20T16:04:38.335Z,99146.64
2019-01-20T16:06:42.186Z,99152.79
2019-01-20T16:08:43.787Z,99160.39
2019-01-20T16:10:44.463Z,99162.30
2019-01-20T16:12:46.243Z,99163.03
2019-01-20T16:14:46.912Z,99166.78
2019-01-20T16:16:47.595Z,99170.90
2019-01-20T16:18:48.270Z,99171.25
2019-01-20T16:20:49.006Z,99176.75
2019-01-20T16:22:49.667Z,99180.42
2019-01-20T16:24:55.956Z,99188.50
2019-01-20T16:27:00.920Z,99189.33
2019-01-20T16:29:01.951Z,99190.10
2019-01-20T16:31:08.099Z,99190.05
2019-01-20T16:33:11.846Z,99189.27
2019-01-20T16:35:12.803Z,99194.24
2019-01-20T16:37:17.612Z,99199.34
2019-01-20T16:39:18.540Z,99200.52
2019-01-20T16:41:20.385Z,99200.42
2019-01-20T16:43:21.263Z,99200.12
2019-01-20T16:45:34.020Z,99202.94
2019-01-20T16:47:34.303Z,99203.77
2019-01-20T16:49:34.913Z,99208.94
2019-01-20T16:51:35.604Z,99209.64
2019-01-20T16:53:36.495Z,99211.76
2019-01-20T16:55:38.965Z,99221.75
2019-01-20T16:57:39.897Z,99214.23
2019-01-20T16:59:40.527Z,99218.56
2019-01-20T17:01:41.244Z,99225.66
2019-01-20T17:03:41.862Z,99228.59
2019-01-20T17:05:44.801Z,99228.59
2019-01-20T17:07:48.057Z,99228.33
2019-01-20T17:09:48.955Z,99235.67
2019-01-20T17:11:49.850Z,99231.79
2019-01-20T17:13:50.757Z,99239.52
2019-01-20T17:15:51.580Z,99240.41
2019-01-20T17:17:52.299Z,99242.61
2019-01-20T17:19:53.000Z,99242.38
2019-01-20T17:21:53.630Z,99248.88
2019-01-20T17:23:54.275Z,99247.27
2019-01-20T17:25:54.887Z,99252.17
2019-01-20T17:27:56.686Z,99249.84
2019-01-20T17:29:57.332Z,99254.66
2019-01-20T17:31:58.312Z,99249.78
2019-01-20T17:33:58.947Z,99256.54
2019-01-20T17:35:59.596Z,99261.73
2019-01-20T17:38:00.533Z,99259.02
2019-01-20T17:40:03.043Z,99262.19
2019-01-20T17:42:03.739Z,99269.11
2019-01-20T17:44:04.681Z,99263.53
2019-01-20T17:46:05.927Z,99269.10
2019-01-20T17:48:06.981Z,99264.45
2019-01-20T17:50:11.760Z,99266.18
2019-01-20T17:52:12.375Z,99271.22
2019-01-20T17:54:13.028Z,99270.16
2019-01-20T17:56:14.524Z,99278.06
2019-01-20T17:58:15.482Z,99278.81
2019-01-20T18:00:18.924Z,99279.34
2019-01-20T18:02:19.607Z,99277.60
2019-01-20T18:04:20.239Z,99284.80
2019-01-20T18:06:21.523Z,99281.20
2019-01-20T18:08:22.215Z,99288.25
2019-01-20T18:10:22.849Z,99292.86
2019-01-20T18:12:23.961Z,99298.42
2019-01-20T18:14:24.800Z,99292.03
2019-01-20T18:16:25.451Z,99299.55
2019-01-20T18:18:26.149Z,99295.09
2019-01-20T18:20:28.618Z,99302.25
2019-01-20T18:22:29.525Z,99306.36
2019-01-20T18:24:31.340Z,99304.94
2019-01-20T18:26:32.228Z,99305.63
2019-01-20T18:28:33.282Z,99305.52
2019-01-20T18:30:34.818Z,99312.61
2019-01-20T18:32:36.221Z,99309.98
2019-01-20T18:34:37.766Z,99307.09
2019-01-20T18:36:38.644Z,99306.46
2019-01-20T18:38:39.330Z,99310.53
2019-01-20T18:40:39.929Z,99311.43
2019-01-20T18:42:40.576Z,99311.19
2019-01-20T18:44:42.108Z,99318.72
2019-01-20T18:46:43.044Z,99315.16
2019-01-20T18:48:43.688Z,99316.33
2019-01-20T18:50:44.569Z,99322.99
2019-01-20T18:52:45.785Z,99327.34
2019-01-20T18:54:46.694Z,99330.42
2019-01-20T18:56:47.300Z,99334.45
2019-01-20T18:58:48.759Z,99336.36
2019-01-20T19:00:50.090Z,99338.97
2019-01-20T19:02:51.188Z,99335.72
2019-01-20T19:04:52.471Z,99336.00
2019-01-20T19:06:53.708Z,99342.19
2019-01-20T19:08:54.636Z,99339.19
2019-01-20T19:10:55.995Z,99341.70
2019-01-20T19:12:56.996Z,99343.50
2019-01-20T19:15:01.092Z,99347.05
2019-01-20T19:17:01.987Z,99353.41
2019-01-20T19:19:03.080Z,99357.09
2019-01-20T19:21:03.682Z,99356.95
2019-01-20T19:23:04.316Z,99366.05
2019-01-20T19:25:05.167Z,99358.27
2019-01-20T19:27:07.330Z,99361.30
2019-01-20T19:29:08.171Z,99370.99
2019-01-20T19:31:08.915Z,99366.13
2019-01-20T19:33:09.840Z,99376.16
2019-01-20T19:35:10.906Z,99373.80
2019-01-20T19:37:11.605Z,99371.57
2019-01-20T19:39:12.538Z,99379.48
2019-01-20T19:41:13.240Z,99372.33
2019-01-20T19:43:13.952Z,99381.27
2019-01-20T19:45:17.753Z,99372.34
2019-01-20T19:47:18.425Z,99380.06
2019-01-20T19:49:19.050Z,99377.20
2019-01-20T19:51:19.897Z,99383.56
2019-01-20T19:53:20.524Z,99379.30
2019-01-20T19:55:25.060Z,99381.02
2019-01-20T19:57:26.216Z,99387.78
2019-01-20T19:59:27.137Z,99387.78
2019-01-20T20:01:30.893Z,99389.19
2019-01-20T20:03:30.397Z,99387.72
2019-01-20T20:05:31.382Z,99389.69
2019-01-20T20:07:32.097Z,99394.03
2019-01-20T20:09:33.001Z,99400.03
2019-01-20T20:11:33.880Z,99406.31
2019-01-20T20:13:34.817Z,99404.45
2019-01-20T20:15:36.403Z,99407.16
2019-01-20T20:17:37.049Z,99402.42
2019-01-20T20:19:37.700Z,99414.05
2019-01-20T20:21:38.644Z,99408.64
2019-01-20T20:23:39.805Z,99414.89
2019-01-20T20:25:40.762Z,99412.41
2019-01-20T20:27:41.844Z,99417.77
2019-01-20T20:29:43.146Z,99419.16
2019-01-20T20:31:44.374Z,99424.36
2019-01-20T20:33:45.541Z,99428.84
2019-01-20T20:35:46.543Z,99430.24
2019-01-20T20:37:47.577Z,99434.09
2019-01-20T20:39:48.556Z,99437.94
2019-01-20T20:41:49.192Z,99438.27
2019-01-20T20:43:50.087Z,99432.31
2019-01-20T20:45:50.758Z,99435.16
2019-01-20T20:47:51.388Z,99441.68
2019-01-20T20:49:52.040Z,99434.80
2019-01-20T20:51:52.638Z,99442.57
2019-01-20T20:53:53.465Z,99441.12
2019-01-20T20:55:54.425Z,99442.75
2019-01-20T20:57:55.053Z,99447.05
2019-01-20T20:59:55.908Z,99444.81
2019-01-20T21:01:56.642Z,99442.57
2019-01-20T21:03:57.590Z,99447.10
2019-01-20T21:05:58.271Z,99454.84
2019-01-20T21:07:58.924Z,99461.78
2019-01-20T21:09:59.567Z,99460.17
2019-01-20T21:12:00.494Z,99462.40
2019-01-20T21:14:01.242Z,99463.29
2019-01-20T21:16:02.331Z,99465.45
2019-01-20T21:18:02.968Z,99468.17
2019-01-20T21:20:07.394Z,99470.89
2019-01-20T21:22:08.050Z,99464.12
2019-01-20T21:24:09.057Z,99471.30
2019-01-20T21:26:09.948Z,99475.94
2019-01-20T21:28:10.889Z,99474.93
2019-01-20T21:30:15.068Z,99478.20
2019-01-20T21:32:16.021Z,99481.59
2019-01-20T21:34:16.924Z,99481.91
2019-01-20T21:36:17.864Z,99484.03
2019-01-20T21:38:18.997Z,99482.40
2019-01-20T21:40:19.938Z,99480.80
2019-01-20T21:42:20.647Z,99484.13
2019-01-20T21:44:21.328Z,99482.79
2019-01-20T21:46:22.009Z,99479.77
2019-01-20T21:48:22.629Z,99484.75
2019-01-20T21:50:25.694Z,99486.02
2019-01-20T21:52:26.606Z,99488.83
2019-01-20T21:54:27.532Z,99500.43
2019-01-20T21:56:29.140Z,99500.43
2019-01-20T21:58:30.671Z,99508.77
2019-01-20T22:00:31.422Z,99503.16
2019-01-20T22:02:32.316Z,99512.14
2019-01-20T22:04:32.993Z,99508.19
2019-01-20T22:06:33.617Z,99516.38
2019-01-20T22:08:35.097Z,99512.97
2019-01-20T22:10:36.023Z,99521.03
2019-01-20T22:12:36.732Z,99521.10
2019-01-20T22:14:37.620Z,99521.10
2019-01-20T22:16:38.282Z,99521.94
2019-01-20T22:18:38.922Z,99525.58
2019-01-20T22:20:39.541Z,99529.80
2019-01-20T22:22:40.627Z,99529.36
2019-01-20T22:24:41.561Z,99534.49
2019-01-20T22:29:26.950Z,99542.92
2019-01-20T22:31:27.847Z,99541.98
2019-01-20T22:33:28.808Z,99537.83
2019-01-20T22:35:29.995Z,99547.19
2019-01-20T22:37:49.831Z,99553.77
2019-01-20T22:40:00.012Z,99557.09
2019-01-20T22:42:12.540Z,99551.95
2019-01-20T22:44:13.567Z,99557.22
2019-01-20T22:46:14.757Z,99558.48
2019-01-20T22:48:18.333Z,99556.24
2019-01-20T22:50:21.239Z,99560.37
2019-01-20T22:52:22.346Z,99558.87
2019-01-20T22:54:24.835Z,99558.20
2019-01-20T22:56:25.882Z,99558.63
2019-01-20T22:59:19.159Z,99553.59
2019-01-20T23:06:06.306Z,99561.02
2019-01-20T23:08:07.176Z,99563.28
2019-01-20T23:10:08.146Z,99560.97
2019-01-20T23:12:09.430Z,99567.78
2019-01-20T23:17:09.277Z,99567.34
2019-01-20T23:19:10.449Z,99568.81
2019-01-20T23:21:11.226Z,99566.89
2019-01-20T23:23:12.472Z,99569.75
2019-01-20T23:25:13.590Z,99567.20
2019-01-20T23:27:14.943Z,99570.29
2019-01-20T23:29:17.103Z,99566.84
2019-01-20T23:31:35.967Z,99560.69
2019-01-20T23:33:36.793Z,99568.86
2019-01-20T23:35:38.016Z,99566.46
2019-01-20T23:37:39.252Z,99555.90
2019-01-20T23:39:40.192Z,99566.08
2019-01-20T23:41:40.852Z,99566.17
2019-01-20T23:43:42.192Z,99567.63
2019-01-20T23:45:43.508Z,99570.92
2019-01-20T23:47:44.334Z,99567.89
2019-01-20T23:49:48.255Z,99569.45
2019-01-20T23:51:50.561Z,99567.45
2019-01-20T23:58:49.952Z,99570.04
